createdAt,value
2023-01-15T00:02:10.009Z,5.80
2023-01-15T00:04:36.974Z,5.80
2023-01-15T00:07:04.619Z,5.80
2023-01-15T00:09:31.704Z,5.90
2023-01-15T00:11:58.657Z,5.90
2023-01-15T00:14:25.689Z,5.90
2023-01-15T00:16:53.651Z,5.90
2023-01-15T00:19:20.698Z,5.90
2023-01-15T00:21:47.659Z,6.00
2023-01-15T00:24:32.929Z,6.00
2023-01-15T00:27:18.143Z,6.00
2023-01-15T00:29:45.104Z,6.00
2023-01-15T00:32:12.132Z,6.10
2023-01-15T00:34:39.142Z,6.10
2023-01-15T00:37:06.233Z,6.10
2023-01-15T00:39:34.661Z,6.10
2023-01-15T00:42:02.024Z,6.10
2023-01-15T00:44:29.280Z,6.10
2023-01-15T00:46:56.185Z,6.10
2023-01-15T00:49:23.129Z,6.10
2023-01-15T00:51:51.202Z,6.10
2023-01-15T00:54:18.365Z,6.20
2023-01-15T00:56:45.888Z,6.10
2023-01-15T00:59:13.149Z,6.10
2023-01-15T01:01:40.498Z,6.10
2023-01-15T01:04:07.763Z,6.10
2023-01-15T01:06:34.884Z,6.00
2023-01-15T01:09:01.938Z,6.00
2023-01-15T01:11:33.102Z,6.00
2023-01-15T01:14:01.570Z,6.10
2023-01-15T01:16:35.892Z,6.10
2023-01-15T01:19:05.965Z,6.10
2023-01-15T01:21:33.010Z,6.10
2023-01-15T01:24:01.319Z,6.10
2023-01-15T01:26:29.457Z,6.10
2023-01-15T01:28:57.608Z,6.10
2023-01-15T01:31:24.848Z,6.20
2023-01-15T01:33:53.562Z,6.20
2023-01-15T01:36:26.261Z,6.20
2023-01-15T01:38:53.284Z,6.20
2023-01-15T01:41:20.477Z,6.30
2023-01-15T01:44:01.805Z,6.30
2023-01-15T01:46:33.553Z,6.40
2023-01-15T01:49:05.562Z,6.40
2023-01-15T01:51:41.218Z,6.40
2023-01-15T01:54:11.097Z,6.50
2023-01-15T01:56:38.099Z,6.50
2023-01-15T01:59:08.633Z,6.50
2023-01-15T02:01:35.958Z,6.60
2023-01-15T02:04:06.555Z,6.60
2023-01-15T02:06:34.455Z,6.60
2023-01-15T02:09:01.489Z,6.60
2023-01-15T02:11:30.576Z,6.70
2023-01-15T02:14:12.995Z,6.70
2023-01-15T02:16:49.703Z,6.70
2023-01-15T02:19:23.104Z,6.70
2023-01-15T02:22:04.930Z,6.80
2023-01-15T02:24:50.841Z,6.70
2023-01-15T02:27:23.258Z,6.80
2023-01-15T02:30:28.604Z,6.80
2023-01-15T02:33:14.542Z,6.80
2023-01-15T02:35:55.151Z,6.90
2023-01-15T02:38:24.242Z,6.90
2023-01-15T02:40:56.410Z,6.90
2023-01-15T02:43:25.143Z,6.90
2023-01-15T02:45:54.737Z,6.90
2023-01-15T02:48:25.797Z,6.90
2023-01-15T02:50:58.370Z,6.90
2023-01-15T02:53:30.445Z,7.00
2023-01-15T02:56:03.394Z,7.00
2023-01-15T02:58:35.863Z,7.00
2023-01-15T03:01:09.278Z,7.00
2023-01-15T03:03:42.373Z,7.00
2023-01-15T03:06:27.285Z,7.10
2023-01-15T03:08:54.328Z,7.00
2023-01-15T03:11:21.463Z,7.00
2023-01-15T03:14:06.952Z,7.00
2023-01-15T03:16:56.637Z,7.10
2023-01-15T03:19:29.224Z,7.10
2023-01-15T03:21:56.101Z,7.00
2023-01-15T03:24:41.948Z,7.00
2023-01-15T03:27:09.039Z,7.10
2023-01-15T03:29:42.933Z,7.10
2023-01-15T03:32:10.382Z,7.10
2023-01-15T03:34:43.901Z,7.20
2023-01-15T03:37:12.056Z,7.20
2023-01-15T03:39:40.159Z,7.20
2023-01-15T03:42:37.842Z,7.20
2023-01-15T03:45:30.826Z,7.20
2023-01-15T03:48:02.811Z,7.10
2023-01-15T03:50:43.206Z,7.10
2023-01-15T03:53:21.061Z,7.00
2023-01-15T03:56:12.121Z,6.90
2023-01-15T03:58:42.035Z,6.90
2023-01-15T04:01:13.600Z,6.80
2023-01-15T04:03:40.941Z,6.80
2023-01-15T04:06:09.197Z,6.70
2023-01-15T04:08:40.645Z,6.70
2023-01-15T04:11:07.598Z,6.70
2023-01-15T04:13:34.585Z,6.70
2023-01-15T04:16:01.690Z,6.60
2023-01-15T04:18:28.892Z,6.60
2023-01-15T04:20:55.996Z,6.60
2023-01-15T04:23:23.674Z,6.60
2023-01-15T04:25:50.629Z,6.60
2023-01-15T04:28:17.555Z,6.60
2023-01-15T04:30:44.576Z,6.60
2023-01-15T04:33:11.988Z,6.60
2023-01-15T04:35:39.695Z,6.60
2023-01-15T04:38:06.637Z,6.60
2023-01-15T04:40:51.949Z,6.70
2023-01-15T04:43:37.545Z,6.70
2023-01-15T04:46:04.572Z,6.70
2023-01-15T04:48:31.714Z,6.70
2023-01-15T04:51:03.442Z,6.70
2023-01-15T04:53:30.375Z,6.70
2023-01-15T04:56:05.415Z,6.70
2023-01-15T04:58:33.213Z,6.70
2023-01-15T05:01:03.237Z,6.70
2023-01-15T05:03:31.674Z,6.70
2023-01-15T05:06:02.801Z,6.70
2023-01-15T05:08:30.025Z,6.80
2023-01-15T05:10:57.087Z,6.80
2023-01-15T05:13:23.961Z,6.80
2023-01-15T05:15:50.883Z,6.80
2023-01-15T05:18:17.807Z,6.80
2023-01-15T05:20:44.664Z,6.80
2023-01-15T05:23:11.651Z,6.90
2023-01-15T05:25:38.858Z,6.80
2023-01-15T05:28:06.054Z,6.90
2023-01-15T05:30:33.050Z,6.90
2023-01-15T05:32:59.975Z,6.90
2023-01-15T05:35:26.965Z,6.80
2023-01-15T05:37:53.854Z,6.90
2023-01-15T05:40:20.737Z,6.80
2023-01-15T05:42:47.609Z,6.80
2023-01-15T05:45:14.631Z,6.80
2023-01-15T05:47:41.615Z,6.80
2023-01-15T05:50:09.302Z,6.80
2023-01-15T05:52:36.231Z,6.80
2023-01-15T05:55:03.168Z,6.80
2023-01-15T05:57:30.099Z,6.80
2023-01-15T05:59:57.056Z,6.80
2023-01-15T06:02:24.178Z,6.80
2023-01-15T06:04:51.080Z,6.80
2023-01-15T06:07:18.375Z,6.80
2023-01-15T06:09:45.348Z,6.80
2023-01-15T06:12:12.253Z,6.80
2023-01-15T06:14:39.203Z,6.80
2023-01-15T06:17:06.141Z,6.90
2023-01-15T06:19:33.448Z,6.80
2023-01-15T06:22:02.478Z,6.80
2023-01-15T06:24:29.377Z,6.80
2023-01-15T06:26:56.242Z,6.80
2023-01-15T06:29:23.194Z,6.70
2023-01-15T06:31:50.252Z,6.70
2023-01-15T06:34:17.353Z,6.70
2023-01-15T06:36:44.249Z,6.70
2023-01-15T06:39:11.256Z,6.60
2023-01-15T06:41:57.154Z,6.60
2023-01-15T06:44:42.823Z,6.60
2023-01-15T06:47:21.736Z,6.60
2023-01-15T06:49:57.727Z,6.60
2023-01-15T06:52:26.279Z,6.60
2023-01-15T06:54:53.355Z,6.60
2023-01-15T06:57:21.085Z,6.60
2023-01-15T06:59:49.446Z,6.60
2023-01-15T07:02:18.029Z,6.60
2023-01-15T07:04:45.520Z,6.60
2023-01-15T07:07:12.435Z,6.60
2023-01-15T07:09:39.333Z,6.60
2023-01-15T07:12:06.569Z,6.60
2023-01-15T07:14:33.516Z,6.60
2023-01-15T07:17:00.450Z,6.60
2023-01-15T07:19:27.908Z,6.60
2023-01-15T07:21:54.868Z,6.60
2023-01-15T07:24:22.672Z,6.70
2023-01-15T07:26:49.613Z,6.70
2023-01-15T07:29:16.687Z,6.70
2023-01-15T07:31:43.628Z,6.70
2023-01-15T07:34:10.772Z,6.70
2023-01-15T07:36:37.997Z,6.70
2023-01-15T07:39:09.016Z,6.70
2023-01-15T07:41:54.845Z,6.70
2023-01-15T07:44:41.761Z,6.70
2023-01-15T07:47:42.804Z,6.80
2023-01-15T07:50:16.826Z,6.80
2023-01-15T07:52:44.546Z,6.60
2023-01-15T07:55:13.395Z,6.30
2023-01-15T07:57:41.571Z,6.00
2023-01-15T08:00:15.610Z,5.90
2023-01-15T08:02:42.595Z,5.80
2023-01-15T08:05:10.156Z,5.80
2023-01-15T08:07:41.638Z,5.70
2023-01-15T08:10:11.076Z,5.60
2023-01-15T08:12:57.617Z,5.70
2023-01-15T08:15:25.649Z,5.60
2023-01-15T08:17:53.138Z,5.60
2023-01-15T08:20:23.780Z,5.60
2023-01-15T08:22:53.058Z,5.60
2023-01-15T08:25:22.557Z,5.60
2023-01-15T08:27:49.719Z,5.60
2023-01-15T08:30:22.474Z,5.50
2023-01-15T08:32:49.540Z,5.50
2023-01-15T08:35:16.632Z,5.50
2023-01-15T08:37:43.651Z,5.60
2023-01-15T08:40:12.018Z,5.50
2023-01-15T08:42:39.213Z,5.50
2023-01-15T08:45:06.807Z,5.40
2023-01-15T08:47:33.773Z,5.40
2023-01-15T08:50:00.734Z,5.40
2023-01-15T08:52:27.702Z,5.40
2023-01-15T08:54:54.571Z,5.40
2023-01-15T08:57:21.503Z,5.40
2023-01-15T08:59:48.577Z,5.40
2023-01-15T09:02:16.072Z,5.30
2023-01-15T09:04:43.151Z,5.30
2023-01-15T09:07:10.442Z,5.30
2023-01-15T09:09:37.418Z,5.30
2023-01-15T09:12:04.464Z,5.30
2023-01-15T09:15:00.528Z,5.20
2023-01-15T09:17:18.241Z,5.20
2023-01-15T09:19:46.027Z,5.20
2023-01-15T09:22:12.960Z,5.20
2023-01-15T09:24:39.851Z,5.20
2023-01-15T09:27:06.782Z,5.30
2023-01-15T09:29:33.659Z,5.30
2023-01-15T09:32:00.813Z,5.20
2023-01-15T09:34:27.675Z,5.10
2023-01-15T09:36:54.611Z,5.10
2023-01-15T09:39:21.490Z,5.20
2023-01-15T09:42:16.353Z,5.20
2023-01-15T09:45:07.261Z,5.10
2023-01-15T09:47:44.970Z,5.10
2023-01-15T09:50:14.967Z,5.20
2023-01-15T09:52:50.943Z,5.20
2023-01-15T09:55:23.205Z,5.20
2023-01-15T09:57:53.123Z,5.20
2023-01-15T10:00:24.177Z,5.20
2023-01-15T10:03:10.352Z,5.20
2023-01-15T10:05:44.400Z,5.20
2023-01-15T10:08:46.063Z,5.20
2023-01-15T10:11:15.903Z,5.30
2023-01-15T10:13:54.960Z,5.10
2023-01-15T10:16:31.462Z,5.20
2023-01-15T10:19:02.687Z,5.50
2023-01-15T10:21:45.054Z,5.60
2023-01-15T10:24:19.148Z,5.60
2023-01-15T10:26:56.432Z,5.50
2023-01-15T10:29:29.418Z,5.50
2023-01-15T10:32:14.479Z,5.30
2023-01-15T10:34:44.214Z,5.60
2023-01-15T10:37:26.069Z,5.60
2023-01-15T10:40:16.283Z,5.60
2023-01-15T10:43:01.671Z,5.50
2023-01-15T10:45:34.593Z,5.60
2023-01-15T10:48:13.518Z,5.50
2023-01-15T10:50:41.898Z,5.60
2023-01-15T10:53:26.956Z,5.50
2023-01-15T10:56:05.297Z,5.40
2023-01-15T10:59:00.570Z,5.10
2023-01-15T11:01:27.854Z,5.20
2023-01-15T11:03:55.262Z,5.00
2023-01-15T11:06:25.647Z,5.00
2023-01-15T11:09:12.175Z,5.10
2023-01-15T11:12:00.356Z,5.10
2023-01-15T11:15:01.966Z,5.00
2023-01-15T11:18:05.956Z,4.80
2023-01-15T11:20:51.067Z,4.90
2023-01-15T11:23:21.828Z,4.90
2023-01-15T11:25:52.779Z,5.10
2023-01-15T11:28:31.794Z,5.00
2023-01-15T11:30:59.581Z,5.10
2023-01-15T11:33:28.582Z,5.10
2023-01-15T11:36:01.200Z,5.10
2023-01-15T11:38:31.443Z,5.20
2023-01-15T11:41:01.719Z,5.10
2023-01-15T11:43:49.296Z,5.10
2023-01-15T11:46:51.240Z,5.10
2023-01-15T11:49:39.703Z,5.00
2023-01-15T11:52:10.511Z,5.10
2023-01-15T11:54:44.904Z,5.10
2023-01-15T11:57:12.501Z,5.10
2023-01-15T11:59:39.821Z,5.20
2023-01-15T12:02:48.455Z,5.20
2023-01-15T12:05:24.093Z,5.10
2023-01-15T12:07:55.290Z,5.10
2023-01-15T12:10:52.904Z,5.00
2023-01-15T12:13:35.042Z,5.00
2023-01-15T12:16:19.576Z,5.10
2023-01-15T12:19:14.767Z,5.10
2023-01-15T12:22:21.790Z,5.00
2023-01-15T12:25:07.139Z,5.00
2023-01-15T12:28:01.217Z,5.10
2023-01-15T12:30:30.821Z,5.10
2023-01-15T12:33:20.811Z,5.00
2023-01-15T12:36:01.974Z,5.00
2023-01-15T12:38:59.059Z,5.00
2023-01-15T12:42:03.668Z,4.90
2023-01-15T12:45:04.005Z,4.90
2023-01-15T12:47:31.036Z,4.90
2023-01-15T12:50:28.255Z,4.80
2023-01-15T12:53:04.118Z,4.90
2023-01-15T12:55:38.034Z,4.90
2023-01-15T12:58:29.779Z,4.80
2023-01-15T13:01:06.904Z,4.80
2023-01-15T13:04:12.030Z,4.80
2023-01-15T13:06:44.442Z,4.80
2023-01-15T13:09:25.552Z,4.80
2023-01-15T13:11:52.575Z,4.70
2023-01-15T13:14:21.752Z,4.60
2023-01-15T13:16:53.288Z,4.60
2023-01-15T13:19:32.021Z,4.60
2023-01-15T13:22:05.749Z,4.90
2023-01-15T13:24:48.541Z,4.90
2023-01-15T13:27:33.959Z,5.00
2023-01-15T13:30:06.722Z,5.00
2023-01-15T13:32:39.711Z,4.80
2023-01-15T13:35:20.596Z,4.80
2023-01-15T13:37:50.701Z,5.10
2023-01-15T13:40:35.178Z,4.80
2023-01-15T13:43:04.056Z,4.70
2023-01-15T13:45:40.169Z,4.70
2023-01-15T13:48:26.204Z,4.60
2023-01-15T13:50:54.382Z,4.60
2023-01-15T13:53:26.879Z,4.60
2023-01-15T13:56:02.603Z,4.60
2023-01-15T13:58:31.536Z,4.50
2023-01-15T14:01:18.347Z,4.50
2023-01-15T14:04:09.526Z,4.60
2023-01-15T14:06:38.220Z,4.50
2023-01-15T14:09:05.666Z,4.50
2023-01-15T14:12:01.192Z,4.50
2023-01-15T14:14:41.675Z,4.50
2023-01-15T14:17:47.210Z,4.50
2023-01-15T14:20:37.074Z,4.50
2023-01-15T14:23:37.868Z,4.50
2023-01-15T14:26:28.153Z,4.50
2023-01-15T14:28:54.999Z,4.60
2023-01-15T14:31:50.852Z,4.50
2023-01-15T14:34:22.123Z,4.50
2023-01-15T14:37:00.946Z,4.50
2023-01-15T14:39:40.555Z,4.60
2023-01-15T14:42:54.674Z,4.50
2023-01-15T14:45:27.797Z,4.60
2023-01-15T14:48:03.950Z,4.70
2023-01-15T14:50:42.339Z,4.70
2023-01-15T14:53:14.940Z,4.80
2023-01-15T14:55:49.594Z,4.80
2023-01-15T14:58:40.358Z,4.80
2023-01-15T15:01:30.829Z,4.90
2023-01-15T15:04:34.238Z,4.90
2023-01-15T15:07:02.623Z,4.90
2023-01-15T15:09:55.882Z,4.90
2023-01-15T15:12:28.333Z,4.90
2023-01-15T15:15:12.899Z,4.80
2023-01-15T15:17:49.515Z,4.80
2023-01-15T15:20:59.526Z,4.80
2023-01-15T15:23:47.157Z,4.80
2023-01-15T15:26:25.764Z,4.80
2023-01-15T15:29:07.910Z,4.80
2023-01-15T15:31:40.873Z,4.70
2023-01-15T15:34:11.244Z,4.70
2023-01-15T15:36:39.640Z,4.70
2023-01-15T15:39:38.393Z,4.70
2023-01-15T15:42:30.464Z,4.60
2023-01-15T15:45:18.389Z,4.60
2023-01-15T15:48:04.149Z,4.60
2023-01-15T15:50:33.811Z,4.50
2023-01-15T15:53:06.671Z,4.50
2023-01-15T15:55:42.678Z,4.40
2023-01-15T15:58:22.158Z,4.40
2023-01-15T16:00:49.445Z,4.40
2023-01-15T16:03:28.332Z,4.50
2023-01-15T16:05:59.966Z,4.40
2023-01-15T16:08:31.860Z,4.40
2023-01-15T16:11:16.703Z,4.60
2023-01-15T16:13:49.196Z,4.60
2023-01-15T16:16:18.146Z,4.60
2023-01-15T16:18:54.170Z,4.60
2023-01-15T16:21:33.672Z,4.60
2023-01-15T16:24:08.846Z,4.60
2023-01-15T16:26:44.377Z,4.60
2023-01-15T16:29:20.408Z,4.60
2023-01-15T16:31:48.764Z,4.70
2023-01-15T16:34:24.488Z,4.70
2023-01-15T16:36:52.196Z,4.80
2023-01-15T16:39:39.844Z,4.90
2023-01-15T16:42:25.922Z,4.90
2023-01-15T16:44:57.087Z,5.00
2023-01-15T16:47:31.642Z,5.00
2023-01-15T16:50:17.212Z,5.00
2023-01-15T16:52:46.757Z,5.10
2023-01-15T16:55:32.162Z,5.00
2023-01-15T16:58:19.722Z,5.00
2023-01-15T17:00:49.887Z,4.90
2023-01-15T17:03:28.085Z,4.80
2023-01-15T17:05:59.947Z,4.90
2023-01-15T17:08:37.849Z,4.90
2023-01-15T17:11:07.142Z,4.90
2023-01-15T17:13:39.441Z,4.90
2023-01-15T17:16:23.433Z,4.80
2023-01-15T17:18:51.397Z,4.90
2023-01-15T17:21:23.427Z,5.00
2023-01-15T17:23:50.953Z,4.80
2023-01-15T17:26:23.909Z,4.80
2023-01-15T17:28:51.563Z,4.60
2023-01-15T17:31:31.940Z,4.70
2023-01-15T17:34:00.722Z,4.70
2023-01-15T17:36:29.161Z,4.80
2023-01-15T17:38:56.626Z,4.60
2023-01-15T17:41:24.556Z,4.50
2023-01-15T17:43:51.954Z,4.50
2023-01-15T17:46:18.959Z,4.60
2023-01-15T17:48:45.961Z,4.60
2023-01-15T17:51:14.927Z,4.50
2023-01-15T17:53:42.224Z,4.40
2023-01-15T17:56:28.405Z,4.50
2023-01-15T17:59:14.042Z,4.40
2023-01-15T18:02:02.890Z,4.50
2023-01-15T18:05:12.601Z,4.50
2023-01-15T18:07:43.364Z,4.60
2023-01-15T18:10:18.312Z,4.70
2023-01-15T18:12:45.565Z,4.70
2023-01-15T18:15:12.675Z,4.60
2023-01-15T18:17:39.697Z,4.50
2023-01-15T18:20:07.101Z,4.50
2023-01-15T18:22:34.105Z,4.80
2023-01-15T18:25:01.295Z,4.70
2023-01-15T18:27:30.282Z,4.60
2023-01-15T18:29:58.814Z,4.40
2023-01-15T18:32:33.419Z,4.50
2023-01-15T18:35:00.545Z,4.50
2023-01-15T18:37:27.458Z,4.50
2023-01-15T18:39:54.420Z,4.40
2023-01-15T18:42:39.725Z,4.50
2023-01-15T18:45:25.989Z,4.40
2023-01-15T18:47:52.865Z,4.40
2023-01-15T18:50:19.769Z,4.30
2023-01-15T18:52:52.539Z,4.30
2023-01-15T18:55:22.709Z,4.40
2023-01-15T18:57:49.612Z,4.40
2023-01-15T19:00:18.030Z,4.40
2023-01-15T19:02:47.681Z,4.40
2023-01-15T19:05:15.518Z,4.40
2023-01-15T19:07:43.847Z,4.30
2023-01-15T19:10:12.429Z,4.50
2023-01-15T19:12:39.761Z,4.40
2023-01-15T19:15:26.721Z,4.40
2023-01-15T19:18:12.357Z,4.40
2023-01-15T19:20:39.607Z,4.40
2023-01-15T19:23:06.929Z,4.30
2023-01-15T19:25:40.992Z,4.40
2023-01-15T19:28:10.351Z,4.40
2023-01-15T19:30:39.175Z,4.40
2023-01-15T19:33:07.641Z,4.50
2023-01-15T19:35:35.731Z,4.50
2023-01-15T19:38:03.226Z,4.40
2023-01-15T19:40:31.861Z,4.40
2023-01-15T19:43:17.337Z,4.40
2023-01-15T19:46:04.098Z,4.40
2023-01-15T19:48:49.846Z,4.40
2023-01-15T19:51:16.763Z,4.40
2023-01-15T19:53:43.763Z,4.50
2023-01-15T19:56:10.687Z,4.40
2023-01-15T19:58:37.581Z,4.30
2023-01-15T20:01:05.054Z,4.30
2023-01-15T20:03:32.338Z,4.20
2023-01-15T20:05:59.272Z,4.20
2023-01-15T20:08:26.535Z,4.20
2023-01-15T20:10:53.487Z,4.20
2023-01-15T20:13:57.660Z,4.10
2023-01-15T20:16:25.732Z,4.20
2023-01-15T20:18:53.345Z,4.20
2023-01-15T20:21:20.269Z,4.10
2023-01-15T20:23:47.230Z,4.10
2023-01-15T20:26:15.657Z,4.10
2023-01-15T20:28:45.669Z,4.10
2023-01-15T20:31:19.625Z,4.10
2023-01-15T20:33:47.561Z,4.20
2023-01-15T20:36:15.084Z,4.20
2023-01-15T20:38:41.998Z,4.20
2023-01-15T20:41:29.558Z,4.20
2023-01-15T20:44:15.039Z,4.10
2023-01-15T20:46:42.018Z,4.10
2023-01-15T20:49:27.210Z,4.10
2023-01-15T20:51:55.765Z,4.10
2023-01-15T20:54:24.588Z,4.10
2023-01-15T20:56:51.827Z,4.10
2023-01-15T20:59:18.826Z,4.10
2023-01-15T21:01:45.818Z,4.10
2023-01-15T21:04:13.851Z,4.20
2023-01-15T21:06:41.350Z,4.20
2023-01-15T21:09:08.320Z,4.20
2023-01-15T21:11:35.235Z,4.20
2023-01-15T21:14:02.208Z,4.20
2023-01-15T21:16:29.157Z,4.10
2023-01-15T21:18:56.450Z,4.10
2023-01-15T21:21:23.356Z,4.20
2023-01-15T21:23:50.454Z,4.10
2023-01-15T21:26:18.222Z,4.20
2023-01-15T21:28:45.229Z,4.30
2023-01-15T21:31:13.973Z,4.20
2023-01-15T21:33:41.096Z,4.30
2023-01-15T21:36:13.686Z,4.30
2023-01-15T21:38:40.914Z,4.30
2023-01-15T21:41:10.395Z,4.20
2023-01-15T21:43:55.880Z,4.20
2023-01-15T21:46:27.489Z,4.10
2023-01-15T21:48:56.109Z,4.20
2023-01-15T21:51:24.291Z,4.10
2023-01-15T21:53:51.199Z,4.10
2023-01-15T21:56:18.119Z,4.00
2023-01-15T21:58:45.044Z,4.00
2023-01-15T22:01:14.117Z,4.20
2023-01-15T22:03:41.221Z,4.10
2023-01-15T22:06:10.374Z,4.20
2023-01-15T22:08:37.833Z,4.20
2023-01-15T22:11:06.403Z,4.30
2023-01-15T22:13:34.174Z,4.20
2023-01-15T22:16:04.462Z,4.30
2023-01-15T22:18:32.610Z,4.20
2023-01-15T22:21:05.916Z,4.10
2023-01-15T22:23:34.373Z,4.10
2023-01-15T22:26:01.579Z,4.10
2023-01-15T22:28:28.512Z,4.10
2023-01-15T22:30:55.459Z,4.00
2023-01-15T22:33:22.845Z,3.90
2023-01-15T22:36:00.068Z,4.00
2023-01-15T22:38:27.422Z,3.90
2023-01-15T22:40:54.300Z,4.00
2023-01-15T22:43:21.370Z,4.00
2023-01-15T22:45:48.314Z,4.00
2023-01-15T22:48:15.421Z,4.00
2023-01-15T22:50:42.372Z,4.10
2023-01-15T22:53:09.235Z,4.00
2023-01-15T22:55:36.670Z,4.00
2023-01-15T22:58:03.845Z,4.00
2023-01-15T23:00:30.918Z,4.10
2023-01-15T23:03:05.168Z,4.10
2023-01-15T23:05:37.286Z,4.10
2023-01-15T23:08:04.420Z,4.10
2023-01-15T23:10:31.379Z,4.00
2023-01-15T23:12:58.334Z,3.90
2023-01-15T23:15:25.267Z,3.80
2023-01-15T23:17:52.184Z,3.90
2023-01-15T23:20:19.142Z,3.90
2023-01-15T23:22:46.063Z,3.90
2023-01-15T23:25:13.049Z,4.00
2023-01-15T23:27:39.943Z,3.90
2023-01-15T23:30:07.627Z,4.00
2023-01-15T23:32:34.630Z,4.00
2023-01-15T23:35:01.598Z,4.00
2023-01-15T23:37:28.548Z,4.20
2023-01-15T23:39:55.513Z,4.10
2023-01-15T23:42:42.205Z,4.00
2023-01-15T23:45:30.513Z,4.00
2023-01-15T23:47:57.408Z,4.20
2023-01-15T23:50:25.152Z,4.30
2023-01-15T23:52:52.016Z,4.30
2023-01-15T23:55:18.915Z,4.20
2023-01-15T23:57:45.827Z,4.30
